Time;durP1;ratioP1;P1;durP2;ratioP2;P2;SDS_P1;SDS_P2;PMS_P1;PMS_P2;Temp;Humidity;BMP_temperature;BMP_pressure;BME280_temperature;BME280_humidity;BME280_pressure;Samples;Min_cycle;Max_cycle;Signal;HPM_P1;HPM_P2
2022/04/23 00:02:10;;;;;;;0.70;0.70;;;6.30;99.90;;;;;;4974566;28;20279;-81
2022/04/23 00:04:36;;;;;;;0.70;0.70;;;6.30;99.90;;;;;;4989280;28;20216;-81
2022/04/23 00:07:01;;;;;;;0.73;0.73;;;6.30;99.90;;;;;;4989413;28;20211;-80
2022/04/23 00:09:27;;;;;;;0.70;0.70;;;6.40;99.90;;;;;;4989582;28;20216;-83
2022/04/23 00:11:55;;;;;;;0.70;0.70;;;6.50;99.90;;;;;;4974377;28;20192;-84
2022/04/23 00:14:24;;;;;;;0.80;0.80;;;6.50;99.90;;;;;;4989216;28;20314;-82
2022/04/23 00:16:51;;;;;;;0.70;0.70;;;6.50;99.90;;;;;;4989466;28;20219;-81
2022/04/23 00:19:20;;;;;;;0.70;0.70;;;6.50;99.90;;;;;;4991592;28;20208;-83
2022/04/23 00:21:46;;;;;;;0.70;0.70;;;6.50;99.90;;;;;;4992604;28;20294;-83
2022/04/23 00:24:13;;;;;;;0.70;0.70;;;6.50;99.90;;;;;;4973537;28;20202;-82
2022/04/23 00:26:40;;;;;;;0.70;0.70;;;6.40;99.90;;;;;;4972659;28;20210;-82
2022/04/23 00:29:05;;;;;;;0.75;0.75;;;6.40;99.90;;;;;;4974064;28;20223;-82
2022/04/23 00:31:31;;;;;;;0.70;0.70;;;6.40;99.90;;;;;;4956580;28;20200;-82
2022/04/23 00:33:57;;;;;;;0.65;0.65;;;6.30;99.90;;;;;;4956770;28;20196;-82
2022/04/23 00:36:23;;;;;;;0.70;0.70;;;6.30;99.90;;;;;;4973799;28;20194;-82
2022/04/23 00:38:52;;;;;;;0.70;0.70;;;6.20;99.90;;;;;;4956606;28;20734;-81
2022/04/23 00:44:05;;;;;;;0.90;0.82;;;6.00;99.90;;;;;;4974350;28;20212;-81
2022/04/23 00:46:30;;;;;;;0.70;0.70;;;6.00;99.90;;;;;;4956210;28;20203;-82
2022/04/23 00:48:58;;;;;;;0.70;0.70;;;5.90;99.90;;;;;;4972427;28;20204;-83
2022/04/23 00:51:28;;;;;;;0.80;0.80;;;6.00;99.90;;;;;;4956420;28;20208;-85
2022/04/23 00:53:54;;;;;;;0.80;0.80;;;6.00;99.90;;;;;;4956306;28;20286;-84
2022/04/23 00:56:20;;;;;;;0.60;0.60;;;5.90;99.90;;;;;;4972530;28;20570;-82
2022/04/23 00:58:46;;;;;;;0.80;0.80;;;5.90;99.90;;;;;;4972800;28;20200;-84
2022/04/23 01:01:12;;;;;;;0.80;0.80;;;5.80;99.90;;;;;;4956493;28;20611;-84
2022/04/23 01:03:39;;;;;;;0.70;0.70;;;5.80;99.90;;;;;;4956287;28;20259;-82
2022/04/23 01:06:06;;;;;;;0.75;0.75;;;5.90;99.90;;;;;;4972797;28;20219;-83
2022/04/23 01:08:33;;;;;;;0.70;0.70;;;5.90;99.90;;;;;;4972442;28;20667;-82
2022/04/23 01:10:59;;;;;;;0.70;0.70;;;5.90;99.90;;;;;;4956501;28;20250;-82
2022/04/23 01:13:25;;;;;;;0.70;0.70;;;5.80;99.90;;;;;;4956551;28;20657;-82
2022/04/23 01:16:07;;;;;;;0.70;0.70;;;5.70;99.90;;;;;;4956086;28;20228;-82
2022/04/23 01:18:34;;;;;;;0.80;0.80;;;5.80;99.90;;;;;;4971846;28;20196;-82
2022/04/23 01:21:01;;;;;;;0.75;0.75;;;5.80;99.90;;;;;;4956044;28;20270;-82
2022/04/23 01:23:29;;;;;;;0.70;0.70;;;5.70;99.90;;;;;;4953006;29;20679;-83
2022/04/23 01:25:55;;;;;;;0.70;0.70;;;5.70;99.90;;;;;;4952960;29;20291;-83
2022/04/23 01:28:22;;;;;;;0.80;0.80;;;5.60;99.90;;;;;;4952588;29;20216;-82
2022/04/23 01:30:49;;;;;;;0.70;0.70;;;5.50;99.90;;;;;;4954615;29;20189;-81
2022/04/23 01:33:15;;;;;;;0.70;0.70;;;5.50;99.90;;;;;;4936572;29;20267;-81
2022/04/23 01:35:42;;;;;;;0.80;0.80;;;5.50;99.90;;;;;;4952492;29;20232;-81
2022/04/23 01:38:08;;;;;;;0.80;0.80;;;5.40;99.90;;;;;;4937215;29;20200;-81
2022/04/23 01:40:34;;;;;;;0.70;0.70;;;5.40;99.90;;;;;;4956182;29;20664;-80
2022/04/23 01:43:00;;;;;;;0.80;0.80;;;5.30;99.90;;;;;;4971316;28;20195;-81
2022/04/23 01:45:26;;;;;;;0.80;0.80;;;5.40;99.90;;;;;;4975569;28;20204;-81
2022/04/23 01:47:51;;;;;;;0.70;0.70;;;5.30;99.90;;;;;;4975776;28;20291;-81
2022/04/23 01:50:17;;;;;;;0.80;0.80;;;5.30;99.90;;;;;;4959433;28;20287;-82
2022/04/23 01:52:43;;;;;;;0.70;0.70;;;5.30;99.90;;;;;;4959393;28;20561;-81
2022/04/23 01:55:09;;;;;;;0.77;0.77;;;5.20;99.90;;;;;;4975751;28;20201;-81
2022/04/23 01:57:34;;;;;;;0.75;0.75;;;5.20;99.90;;;;;;4975491;28;20200;-82
2022/04/23 02:00:00;;;;;;;0.70;0.70;;;5.10;99.90;;;;;;4975875;28;20206;-81
2022/04/23 02:02:26;;;;;;;0.70;0.70;;;5.00;99.90;;;;;;4974936;28;20215;-82
2022/04/23 02:04:51;;;;;;;0.70;0.70;;;5.00;99.90;;;;;;4975486;28;20291;-81
2022/04/23 02:07:18;;;;;;;0.80;0.80;;;4.90;99.90;;;;;;4976485;28;20269;-81
2022/04/23 02:09:44;;;;;;;0.70;0.70;;;4.80;99.90;;;;;;4976539;28;20215;-81
2022/04/23 02:12:09;;;;;;;0.80;0.80;;;4.70;99.90;;;;;;4976311;28;20192;-82
2022/04/23 02:14:35;;;;;;;0.80;0.80;;;4.60;99.90;;;;;;4974574;28;20228;-82
2022/04/23 02:17:03;;;;;;;0.70;0.70;;;4.60;99.90;;;;;;4975247;28;20718;-82
2022/04/23 02:19:29;;;;;;;0.80;0.80;;;4.50;99.90;;;;;;4974832;28;20232;-82
2022/04/23 02:21:54;;;;;;;0.70;0.70;;;4.40;99.90;;;;;;4974972;28;20367;-82
2022/04/23 02:24:22;;;;;;;0.70;0.70;;;4.40;99.90;;;;;;4974929;28;20682;-82
2022/04/23 02:26:48;;;;;;;0.80;0.80;;;4.40;99.90;;;;;;4975024;28;20286;-80
2022/04/23 02:29:13;;;;;;;0.70;0.70;;;4.30;99.90;;;;;;4976337;28;20273;-81
2022/04/23 02:31:39;;;;;;;0.80;0.80;;;4.20;99.90;;;;;;4974731;28;20200;-80
2022/04/23 02:34:05;;;;;;;0.80;0.80;;;4.20;99.90;;;;;;4976261;28;20251;-82
2022/04/23 02:36:31;;;;;;;0.80;0.80;;;4.10;99.90;;;;;;4975968;28;20195;-81
2022/04/23 02:38:57;;;;;;;0.77;0.77;;;4.10;99.90;;;;;;4965768;28;20215;-81
2022/04/23 02:41:24;;;;;;;0.70;0.70;;;4.10;99.90;;;;;;4974227;28;20192;-82
2022/04/23 02:43:50;;;;;;;0.70;0.70;;;4.20;99.90;;;;;;4958833;28;20369;-82
2022/04/23 02:46:16;;;;;;;0.77;0.77;;;4.20;99.90;;;;;;4990185;28;20686;-83
2022/04/23 02:48:42;;;;;;;0.70;0.70;;;4.20;99.90;;;;;;4995256;28;20251;-82
2022/04/23 02:51:09;;;;;;;0.80;0.80;;;4.20;99.90;;;;;;4993009;28;20199;-81
2022/04/23 02:53:34;;;;;;;0.70;0.70;;;4.30;99.90;;;;;;4993837;28;20195;-81
2022/04/23 02:56:02;;;;;;;0.80;0.80;;;4.40;99.90;;;;;;4993992;28;20294;-81
2022/04/23 02:58:28;;;;;;;0.80;0.80;;;4.40;99.90;;;;;;4993870;28;20678;-82
2022/04/23 03:00:54;;;;;;;0.70;0.70;;;4.30;99.90;;;;;;4987016;28;20242;-82
2022/04/23 03:03:20;;;;;;;0.70;0.70;;;4.30;99.90;;;;;;4964481;28;20288;-82
2022/04/23 03:05:46;;;;;;;0.68;0.68;;;4.20;99.90;;;;;;4974481;28;20219;-83
2022/04/23 03:08:12;;;;;;;0.70;0.70;;;4.20;99.90;;;;;;4975732;28;20204;-84
2022/04/23 03:10:39;;;;;;;0.80;0.80;;;4.10;99.90;;;;;;4974515;28;20200;-84
2022/04/23 03:13:07;;;;;;;0.80;0.80;;;4.00;99.90;;;;;;4957884;28;20540;-83
2022/04/23 03:15:35;;;;;;;0.80;0.80;;;4.10;99.90;;;;;;4957902;28;20725;-84
2022/04/23 03:18:05;;;;;;;0.70;0.70;;;4.10;99.90;;;;;;4958419;28;20604;-84
2022/04/23 03:20:31;;;;;;;0.80;0.80;;;4.10;99.90;;;;;;4973618;28;20667;-83
2022/04/23 03:22:57;;;;;;;2.33;1.30;;;4.10;99.90;;;;;;4970767;28;20561;-83
2022/04/23 03:25:23;;;;;;;0.80;0.80;;;4.10;99.90;;;;;;4954436;29;20197;-82
2022/04/23 03:27:48;;;;;;;0.80;0.80;;;4.10;99.90;;;;;;4954602;29;20251;-82
2022/04/23 03:30:14;;;;;;;0.82;0.82;;;4.10;99.90;;;;;;4954789;29;20587;-83
2022/04/23 03:32:41;;;;;;;0.80;0.80;;;4.10;99.90;;;;;;4954575;29;20192;-82
2022/04/23 03:35:08;;;;;;;0.80;0.80;;;4.10;99.90;;;;;;4957578;28;20197;-82
2022/04/23 03:37:34;;;;;;;0.80;0.80;;;4.10;99.90;;;;;;4973573;28;20199;-82
2022/04/23 03:40:00;;;;;;;0.80;0.80;;;4.00;99.90;;;;;;4957585;28;20196;-82
2022/04/23 03:42:26;;;;;;;0.80;0.80;;;4.00;99.90;;;;;;4956855;28;20220;-82
2022/04/23 03:44:52;;;;;;;0.80;0.80;;;4.00;99.90;;;;;;4957657;28;20208;-82
2022/04/23 03:47:17;;;;;;;0.73;0.73;;;4.00;99.90;;;;;;4974986;28;20196;-82
2022/04/23 03:49:43;;;;;;;0.70;0.70;;;4.10;99.90;;;;;;4973463;28;20222;-82
2022/04/23 03:52:11;;;;;;;0.70;0.70;;;4.00;99.90;;;;;;4973398;28;20250;-82
2022/04/23 03:54:38;;;;;;;0.80;0.80;;;4.00;99.90;;;;;;4974875;28;20195;-81
2022/04/23 03:57:04;;;;;;;0.75;0.75;;;4.00;99.90;;;;;;4957334;28;20196;-82
2022/04/23 03:59:30;;;;;;;0.70;0.70;;;4.00;99.90;;;;;;4957135;28;20313;-82
2022/04/23 04:01:56;;;;;;;0.68;0.68;;;4.00;99.90;;;;;;4974192;28;20200;-82
2022/04/23 04:04:22;;;;;;;0.80;0.80;;;3.90;99.90;;;;;;4957126;28;20338;-82
2022/04/23 04:06:48;;;;;;;0.80;0.80;;;4.00;99.90;;;;;;4957265;28;20358;-82
2022/04/23 04:09:14;;;;;;;0.90;0.90;;;4.00;99.90;;;;;;4973005;28;20300;-81
2022/04/23 04:14:23;;;;;;;0.80;0.80;;;4.00;99.90;;;;;;4974624;28;20223;-83
2022/04/23 04:16:50;;;;;;;0.70;0.70;;;4.00;99.90;;;;;;4973069;28;20196;-83
2022/04/23 04:19:16;;;;;;;0.80;0.80;;;4.10;99.90;;;;;;4956814;28;20226;-82
2022/04/23 04:21:43;;;;;;;0.70;0.70;;;4.10;99.90;;;;;;4957073;28;20232;-82
2022/04/23 04:24:16;;;;;;;0.70;0.70;;;4.10;99.90;;;;;;4974422;28;20235;-82
2022/04/23 04:26:43;;;;;;;0.70;0.70;;;4.10;99.90;;;;;;4972846;28;20670;-82
2022/04/23 04:29:13;;;;;;;0.70;0.70;;;4.20;99.90;;;;;;4956882;28;20226;-81
2022/04/23 04:31:51;;;;;;;0.70;0.70;;;4.20;99.90;;;;;;4961469;28;20196;-81
2022/04/23 04:34:18;;;;;;;0.70;0.70;;;4.30;99.90;;;;;;4972798;28;20207;-82
2022/04/23 04:36:46;;;;;;;0.80;0.80;;;4.40;99.90;;;;;;4956719;28;20211;-81
2022/04/23 04:39:12;;;;;;;0.70;0.70;;;4.40;99.90;;;;;;4956611;28;20208;-82
2022/04/23 04:41:38;;;;;;;0.90;0.90;;;4.40;99.90;;;;;;4956529;28;20211;-83
2022/04/23 04:44:05;;;;;;;0.70;0.70;;;4.50;99.90;;;;;;4956671;28;20196;-82
2022/04/23 04:46:32;;;;;;;0.70;0.70;;;4.60;99.90;;;;;;4956527;28;20244;-83
2022/04/23 04:48:58;;;;;;;0.80;0.80;;;4.60;99.90;;;;;;4972673;28;20577;-82
2022/04/23 04:51:23;;;;;;;0.80;0.80;;;4.70;99.90;;;;;;4973760;28;20276;-83
2022/04/23 04:53:51;;;;;;;0.70;0.70;;;4.70;99.90;;;;;;4974062;28;20188;-83
2022/04/23 04:56:17;;;;;;;0.60;0.60;;;4.80;99.90;;;;;;4972887;28;20595;-82
2022/04/23 04:58:43;;;;;;;0.70;0.70;;;4.80;99.90;;;;;;4956399;28;20204;-82
2022/04/23 05:01:10;;;;;;;0.80;0.80;;;4.80;99.90;;;;;;4973697;28;20207;-82
2022/04/23 05:03:36;;;;;;;0.80;0.80;;;4.90;99.90;;;;;;4973616;28;20274;-82
2022/04/23 05:06:02;;;;;;;0.80;0.80;;;5.00;99.90;;;;;;4974188;28;20204;-82
2022/04/23 05:08:28;;;;;;;0.80;0.80;;;5.00;99.90;;;;;;4956177;28;20212;-82
2022/04/23 05:10:54;;;;;;;0.80;0.80;;;5.00;99.90;;;;;;4972438;28;20207;-82
2022/04/23 05:13:19;;;;;;;0.90;0.90;;;5.10;99.90;;;;;;4973212;28;20204;-83
2022/04/23 05:15:45;;;;;;;0.80;0.80;;;5.20;99.90;;;;;;4976296;28;20200;-83
2022/04/23 05:18:11;;;;;;;0.70;0.70;;;5.30;99.90;;;;;;4976346;28;20196;-82
2022/04/23 05:20:37;;;;;;;0.70;0.70;;;5.40;99.90;;;;;;4975899;28;20352;-81
2022/04/23 05:23:03;;;;;;;0.70;0.70;;;5.50;99.90;;;;;;4975957;28;20200;-83
2022/04/23 05:25:29;;;;;;;0.80;0.80;;;5.60;99.90;;;;;;4976166;28;20640;-83
2022/04/23 05:27:54;;;;;;;0.80;0.80;;;5.70;99.90;;;;;;4965121;28;20196;-82
2022/04/23 05:30:20;;;;;;;0.70;0.70;;;5.80;99.90;;;;;;4970890;28;20212;-83
2022/04/23 05:32:46;;;;;;;0.70;0.70;;;6.00;99.90;;;;;;4940848;29;20196;-81
2022/04/23 05:35:11;;;;;;;0.70;0.70;;;6.10;99.90;;;;;;4955984;28;20228;-82
2022/04/23 05:37:37;;;;;;;0.90;0.90;;;6.20;99.90;;;;;;4975756;28;20205;-81
2022/04/23 05:40:03;;;;;;;0.70;0.70;;;6.30;99.90;;;;;;4959802;28;20258;-82
2022/04/23 05:42:29;;;;;;;0.70;0.70;;;6.40;99.90;;;;;;4959573;28;20247;-81
2022/04/23 05:44:55;;;;;;;0.70;0.70;;;6.50;99.90;;;;;;4977095;28;20628;-82
2022/04/23 05:47:20;;;;;;;0.70;0.70;;;6.60;99.90;;;;;;4959558;28;20235;-83
2022/04/23 05:49:46;;;;;;;0.70;0.70;;;6.70;99.90;;;;;;4976987;28;20695;-81
2022/04/23 05:52:12;;;;;;;0.73;0.73;;;6.80;99.90;;;;;;4976948;28;20731;-82
2022/04/23 05:54:37;;;;;;;0.70;0.70;;;6.80;99.90;;;;;;4975431;28;20196;-81
2022/04/23 05:57:03;;;;;;;0.60;0.60;;;6.90;99.90;;;;;;4976899;28;20279;-82
2022/04/23 05:59:30;;;;;;;0.70;0.70;;;7.00;99.90;;;;;;4959097;28;20203;-82
2022/04/23 06:01:56;;;;;;;0.60;0.60;;;7.20;99.90;;;;;;4976496;28;20691;-81
2022/04/23 06:04:23;;;;;;;0.80;0.80;;;7.10;99.90;;;;;;4975339;28;20204;-82
2022/04/23 06:06:49;;;;;;;0.70;0.70;;;7.20;99.90;;;;;;4959283;28;20208;-81
2022/04/23 06:09:15;;;;;;;0.70;0.70;;;7.30;99.90;;;;;;4959103;28;20302;-82
2022/04/23 06:11:40;;;;;;;0.70;0.70;;;7.40;99.90;;;;;;4975004;28;20252;-83
2022/04/23 06:14:06;;;;;;;0.65;0.65;;;7.50;99.90;;;;;;4959139;28;20204;-82
2022/04/23 06:16:32;;;;;;;0.70;0.70;;;7.60;99.90;;;;;;4974913;28;20674;-80
2022/04/23 06:18:58;;;;;;;0.70;0.70;;;7.70;99.90;;;;;;4976531;28;20266;-81
2022/04/23 06:21:23;;;;;;;0.70;0.70;;;7.70;99.90;;;;;;4958632;28;20643;-81
2022/04/23 06:23:49;;;;;;;1.83;0.90;;;7.80;99.90;;;;;;4973669;28;20412;-81
2022/04/23 06:26:15;;;;;;;0.60;0.60;;;7.90;99.90;;;;;;4958989;28;20211;-80
2022/04/23 06:28:40;;;;;;;0.63;0.63;;;8.00;99.90;;;;;;4958729;28;20228;-80
2022/04/23 06:31:06;;;;;;;0.60;0.60;;;8.20;99.90;;;;;;4976194;28;20208;-80
2022/04/23 06:33:32;;;;;;;0.50;0.50;;;8.40;99.90;;;;;;4976034;28;20231;-80
2022/04/23 06:35:58;;;;;;;0.60;0.60;;;8.50;99.90;;;;;;4958781;28;20211;-80
2022/04/23 06:38:24;;;;;;;0.70;0.70;;;8.60;99.90;;;;;;4958937;28;20673;-80
2022/04/23 06:40:51;;;;;;;0.70;0.70;;;8.80;99.90;;;;;;4976164;28;20196;-81
2022/04/23 06:43:17;;;;;;;0.70;0.70;;;9.00;99.90;;;;;;4976157;28;20199;-81
2022/04/23 06:45:43;;;;;;;0.60;0.60;;;9.10;99.90;;;;;;4958463;28;20200;-80
2022/04/23 06:48:09;;;;;;;0.60;0.60;;;9.10;99.90;;;;;;4958502;28;20204;-79
2022/04/23 06:50:36;;;;;;;0.60;0.60;;;9.10;99.90;;;;;;4958363;28;20200;-79
2022/04/23 06:53:03;;;;;;;0.70;0.70;;;9.10;99.10;;;;;;4958650;28;20631;-79
2022/04/23 06:55:30;;;;;;;0.60;0.60;;;9.30;99.90;;;;;;4958275;28;20200;-78
2022/04/23 06:57:56;;;;;;;0.70;0.70;;;9.40;98.90;;;;;;4976309;28;20286;-79
2022/04/23 07:00:23;;;;;;;0.70;0.70;;;9.40;98.90;;;;;;4995173;28;20659;-79
2022/04/23 07:02:50;;;;;;;0.70;0.70;;;9.40;99.20;;;;;;4977896;28;20728;-78
2022/04/23 07:05:17;;;;;;;0.60;0.60;;;9.70;99.20;;;;;;4995565;28;20231;-80
2022/04/23 07:07:55;;;;;;;0.60;0.60;;;9.90;99.30;;;;;;4977449;28;20218;-79
2022/04/23 07:10:21;;;;;;;0.60;0.60;;;10.00;99.20;;;;;;4994743;28;20203;-80
2022/04/23 07:12:47;;;;;;;0.60;0.60;;;10.10;98.30;;;;;;4977554;28;20569;-80
2022/04/23 07:15:14;;;;;;;3.25;1.35;;;10.00;97.70;;;;;;4994980;28;20192;-81
2022/04/23 07:17:39;;;;;;;0.60;0.60;;;9.90;97.70;;;;;;4977304;28;20195;-80
2022/04/23 07:20:05;;;;;;;0.60;0.60;;;9.90;98.10;;;;;;4965353;28;20228;-79
2022/04/23 07:22:31;;;;;;;0.60;0.60;;;10.10;98.00;;;;;;4977652;28;20202;-79
2022/04/23 07:24:57;;;;;;;0.60;0.60;;;10.30;98.00;;;;;;4977414;28;20199;-80
2022/04/23 07:27:23;;;;;;;0.50;0.50;;;10.40;96.50;;;;;;4963693;28;20239;-79
2022/04/23 07:29:50;;;;;;;0.60;0.60;;;10.40;97.10;;;;;;4974756;28;20365;-78
2022/04/23 07:32:16;;;;;;;0.60;0.60;;;10.50;95.60;;;;;;4975437;28;20288;-78
2022/04/23 07:37:28;;;;;;;0.68;0.68;;;10.80;93.80;;;;;;4974534;28;20207;-79
2022/04/23 07:40:06;;;;;;;0.60;0.60;;;10.80;92.10;;;;;;4957603;28;20672;-79
2022/04/23 07:42:32;;;;;;;0.60;0.60;;;10.80;91.50;;;;;;4957427;28;20655;-80
2022/04/23 07:44:58;;;;;;;0.57;0.57;;;10.80;91.80;;;;;;4957487;28;20251;-80
2022/04/23 07:47:24;;;;;;;0.50;0.50;;;10.90;91.40;;;;;;4974687;28;20197;-80
2022/04/23 07:49:50;;;;;;;0.80;0.80;;;11.00;91.40;;;;;;4957373;28;20308;-79
2022/04/23 07:52:16;;;;;;;0.57;0.57;;;11.20;91.00;;;;;;4960068;28;20196;-79
2022/04/23 07:54:43;;;;;;;0.60;0.60;;;11.30;90.50;;;;;;4976844;28;20230;-79
2022/04/23 07:57:10;;;;;;;0.50;0.50;;;11.30;90.10;;;;;;4976598;28;20249;-79
2022/04/23 07:59:43;;;;;;;0.60;0.60;;;11.30;89.80;;;;;;4976444;28;20234;-79
2022/04/23 08:02:10;;;;;;;0.50;0.50;;;11.40;90.00;;;;;;4976799;28;20203;-80
2022/04/23 08:04:39;;;;;;;0.60;0.60;;;11.80;90.40;;;;;;4976450;28;20223;-79
2022/04/23 08:07:05;;;;;;;0.50;0.50;;;12.00;89.80;;;;;;4976381;28;20207;-79
2022/04/23 08:09:37;;;;;;;0.60;0.60;;;12.20;86.50;;;;;;4976356;28;20587;-80
2022/04/23 08:12:05;;;;;;;0.50;0.50;;;12.10;87.80;;;;;;4965405;28;20681;-78
2022/04/23 08:14:57;;;;;;;0.55;0.55;;;12.00;86.60;;;;;;4956828;28;20540;-80
2022/04/23 08:17:23;;;;;;;0.50;0.50;;;12.00;87.50;;;;;;4937640;29;20221;-81
2022/04/23 08:19:49;;;;;;;0.50;0.50;;;12.20;87.20;;;;;;4964644;28;20310;-81
2022/04/23 08:22:15;;;;;;;0.50;0.50;;;12.50;86.80;;;;;;4956640;28;20603;-80
2022/04/23 08:24:40;;;;;;;0.60;0.60;;;12.80;86.70;;;;;;4989137;28;20235;-81
2022/04/23 08:27:06;;;;;;;0.50;0.50;;;12.90;86.10;;;;;;4989483;28;20215;-81
2022/04/23 08:32:16;;;;;;;0.50;0.50;;;12.90;84.00;;;;;;4974449;28;20682;-81
2022/04/23 08:34:41;;;;;;;0.50;0.50;;;12.80;84.90;;;;;;4988959;28;20196;-81
2022/04/23 08:37:07;;;;;;;0.55;0.55;;;12.60;85.40;;;;;;4972748;28;20674;-80
2022/04/23 08:39:33;;;;;;;0.50;0.50;;;12.50;86.70;;;;;;4973979;28;20631;-81
2022/04/23 08:42:01;;;;;;;0.50;0.50;;;12.60;86.40;;;;;;4989221;28;20295;-80
2022/04/23 08:44:27;;;;;;;0.50;0.50;;;12.60;86.80;;;;;;4988801;28;20352;-81
2022/04/23 08:46:55;;;;;;;0.50;0.50;;;12.70;86.80;;;;;;4973785;28;20290;-81
2022/04/23 08:49:28;;;;;;;0.60;0.60;;;12.60;87.10;;;;;;4981769;28;20659;-80
2022/04/23 08:51:56;;;;;;;0.55;0.55;;;12.60;87.70;;;;;;4972581;28;20564;-80
2022/04/23 08:54:23;;;;;;;0.50;0.50;;;12.60;88.00;;;;;;4972350;28;20622;-81
2022/04/23 08:56:49;;;;;;;0.50;0.50;;;12.50;87.30;;;;;;4972412;28;20199;-80
2022/04/23 08:59:20;;;;;;;0.77;0.77;;;12.40;88.60;;;;;;4972669;28;20203;-82
2022/04/23 09:01:46;;;;;;;0.20;0.20;;;12.50;88.40;;;;;;4972551;28;20250;-83
2022/04/23 09:04:12;;;;;;;0.20;0.20;;;12.80;88.80;;;;;;4972591;28;20556;-82
2022/04/23 09:06:42;;;;;;;0.20;0.20;;;13.20;88.20;;;;;;4973657;28;20200;-82
2022/04/23 09:09:13;;;;;;;0.10;0.10;;;13.50;88.50;;;;;;4973742;28;20683;-82
2022/04/23 09:11:48;;;;;;;0.20;0.20;;;13.70;85.60;;;;;;4972136;28;20204;-81
2022/04/23 09:14:25;;;;;;;0.20;0.20;;;13.50;85.80;;;;;;4973781;28;20674;-80
2022/04/23 09:25:16;;;;;;;0.20;0.20;;;12.70;87.70;;;;;;4973861;28;20251;-80
2022/04/23 09:27:45;;;;;;;0.10;0.10;;;12.30;88.60;;;;;;4972217;28;20227;-79
2022/04/23 09:30:12;;;;;;;0.20;0.20;;;12.30;89.00;;;;;;4973381;28;20277;-79
2022/04/23 09:32:57;;;;;;;0.20;0.20;;;12.30;90.00;;;;;;4972093;28;20203;-80
2022/04/23 09:35:24;;;;;;;0.10;0.10;;;12.40;90.40;;;;;;4971957;28;20687;-80
2022/04/23 09:40:34;;;;;;;0.22;0.22;;;11.90;89.90;;;;;;4973613;28;20570;-79
2022/04/23 09:43:05;;;;;;;0.20;0.20;;;12.00;90.40;;;;;;4972220;28;20208;-81
2022/04/23 09:45:34;;;;;;;0.20;0.20;;;12.10;90.10;;;;;;4971819;28;20200;-81
2022/04/23 09:48:12;;;;;;;0.10;0.10;;;12.00;90.40;;;;;;4975062;28;20207;-80
2022/04/23 09:50:39;;;;;;;0.30;0.30;;;12.40;90.70;;;;;;4973094;28;20271;-82
2022/04/23 09:53:09;;;;;;;0.35;0.35;;;12.30;90.30;;;;;;4971969;28;20208;-81
2022/04/23 09:55:35;;;;;;;0.20;0.20;;;12.40;89.80;;;;;;4971985;28;20204;-82
2022/04/23 09:58:08;;;;;;;0.15;0.15;;;12.30;90.30;;;;;;4971788;28;20196;-82
2022/04/23 10:00:36;;;;;;;0.20;0.20;;;12.20;88.70;;;;;;4974691;28;20702;-80
2022/04/23 10:03:06;;;;;;;0.20;0.20;;;12.10;88.90;;;;;;4975990;28;20291;-82
2022/04/23 10:05:39;;;;;;;0.35;0.35;;;12.10;89.50;;;;;;4959343;28;20204;-82
2022/04/23 10:08:14;;;;;;;0.20;0.20;;;12.20;88.80;;;;;;4976640;28;20201;-81
2022/04/23 10:11:03;;;;;;;1.25;0.90;;;12.30;90.30;;;;;;4994586;28;20298;-81
2022/04/23 10:13:30;;;;;;;0.43;0.40;;;12.40;88.30;;;;;;4923345;29;20251;-81
2022/04/23 10:16:03;;;;;;;0.20;0.20;;;12.30;88.10;;;;;;4978876;28;20211;-79
2022/04/23 10:18:29;;;;;;;0.20;0.20;;;12.20;89.20;;;;;;4994546;28;20211;-83
2022/04/23 10:21:04;;;;;;;0.20;0.20;;;12.30;89.10;;;;;;4995925;28;20693;-82
2022/04/23 10:23:55;;;;;;;0.20;0.20;;;12.20;88.10;;;;;;4977984;28;20200;-85
2022/04/23 10:26:37;;;;;;;0.20;0.20;;;12.20;88.20;;;;;;4956936;29;20558;-83
2022/04/23 10:29:09;;;;;;;0.20;0.20;;;12.20;88.50;;;;;;4955879;29;20311;-82
2022/04/23 10:31:35;;;;;;;0.30;0.30;;;12.30;89.40;;;;;;4955624;28;20197;-83
2022/04/23 10:34:01;;;;;;;0.20;0.20;;;12.30;87.80;;;;;;4955632;29;20688;-85
2022/04/23 10:36:27;;;;;;;0.20;0.20;;;12.30;87.10;;;;;;4955608;28;20567;-83
2022/04/23 10:39:18;;;;;;;2.63;0.40;;;12.30;87.30;;;;;;4955820;28;20292;-85
2022/04/23 10:41:44;;;;;;;0.20;0.20;;;12.40;87.30;;;;;;4967038;28;20227;-83
2022/04/23 10:44:10;;;;;;;0.20;0.20;;;12.30;86.50;;;;;;4994980;28;20994;-82
2022/04/23 10:46:45;;;;;;;0.20;0.20;;;12.30;85.30;;;;;;4977940;28;20199;-83
2022/04/23 10:49:18;;;;;;;0.60;0.60;;;12.40;84.30;;;;;;4994985;28;20663;-84
2022/04/23 10:51:54;;;;;;;0.50;0.50;;;12.50;85.60;;;;;;4994482;28;20199;-84
2022/04/23 10:54:40;;;;;;;0.50;0.50;;;12.50;86.20;;;;;;4992608;28;20283;-84
2022/04/23 10:57:07;;;;;;;0.57;0.57;;;12.20;84.70;;;;;;4995279;28;20211;-84
2022/04/23 10:59:52;;;;;;;0.50;0.50;;;12.50;84.70;;;;;;4977770;28;20203;-82
2022/04/23 11:02:21;;;;;;;0.50;0.50;;;12.60;85.00;;;;;;4995991;28;20218;-83
2022/04/23 11:13:48;;;;;;;0.50;0.50;;;14.10;84.70;;;;;;4996675;28;20718;-84
2022/04/23 11:16:14;;;;;;;0.50;0.50;;;14.90;80.00;;;;;;4993962;28;20199;-85
2022/04/23 11:18:42;;;;;;;1.48;0.70;;;15.20;77.60;;;;;;4993976;28;20207;-85
2022/04/23 11:21:21;;;;;;;0.40;0.40;;;14.80;77.60;;;;;;4993245;28;20683;-82
2022/04/23 11:23:47;;;;;;;0.40;0.40;;;14.40;79.70;;;;;;4979687;28;20207;-82
2022/04/23 11:26:22;;;;;;;0.40;0.40;;;14.60;80.20;;;;;;4975225;28;20224;-81
2022/04/23 11:29:00;;;;;;;0.40;0.40;;;14.70;78.10;;;;;;4974166;28;20219;-84
2022/04/23 11:31:26;;;;;;;0.40;0.40;;;14.70;78.80;;;;;;4975414;28;20223;-82
2022/04/23 11:34:00;;;;;;;0.40;0.40;;;15.50;78.90;;;;;;4975417;28;20537;-83
2022/04/23 11:36:27;;;;;;;0.40;0.40;;;16.50;77.30;;;;;;4975682;28;20196;-84
2022/04/23 11:38:53;;;;;;;0.40;0.40;;;17.00;72.50;;;;;;4991003;28;20200;-84
2022/04/23 11:41:52;;;;;;;0.30;0.30;;;17.10;72.50;;;;;;4977312;28;20254;-81
2022/04/23 11:44:45;;;;;;;0.30;0.30;;;17.40;71.60;;;;;;4950867;28;20211;-75
2022/04/23 11:47:12;;;;;;;0.30;0.30;;;17.50;70.70;;;;;;4994206;28;20546;-76
2022/04/23 11:49:38;;;;;;;0.40;0.40;;;17.10;71.50;;;;;;4994154;28;20208;-76
2022/04/23 11:52:10;;;;;;;0.40;0.40;;;17.20;70.60;;;;;;4994277;28;20191;-76
2022/04/23 11:54:36;;;;;;;0.30;0.30;;;17.60;70.90;;;;;;4976520;28;20199;-75
2022/04/23 11:57:02;;;;;;;0.30;0.30;;;17.90;71.00;;;;;;4994203;28;20304;-76
2022/04/23 11:59:45;;;;;;;0.30;0.30;;;17.70;71.30;;;;;;4994028;28;20250;-76
2022/04/23 12:02:21;;;;;;;0.30;0.30;;;17.70;70.30;;;;;;4975429;28;20196;-77
2022/04/23 12:04:49;;;;;;;0.30;0.30;;;17.80;71.00;;;;;;4985488;28;20203;-74
2022/04/23 12:07:15;;;;;;;0.30;0.30;;;17.60;69.60;;;;;;4990628;28;20231;-76
2022/04/23 12:09:49;;;;;;;0.30;0.30;;;17.40;69.90;;;;;;4974349;28;20212;-76
2022/04/23 12:12:19;;;;;;;0.20;0.20;;;17.90;69.40;;;;;;4973458;28;20721;-75
2022/04/23 12:14:50;;;;;;;2.17;0.40;;;18.40;66.10;;;;;;4989550;28;20660;-75
2022/04/23 12:17:26;;;;;;;0.30;0.30;;;17.90;65.30;;;;;;4973432;28;20199;-76
2022/04/23 12:19:53;;;;;;;1.20;0.50;;;17.40;67.90;;;;;;4974229;28;20306;-73
2022/04/23 12:22:37;;;;;;;0.40;0.40;;;17.50;68.00;;;;;;4977310;28;20192;-77
2022/04/23 12:25:18;;;;;;;0.30;0.30;;;18.20;69.30;;;;;;4993746;28;20265;-76
2022/04/23 12:27:53;;;;;;;0.30;0.30;;;19.00;63.70;;;;;;4976233;28;20235;-76
2022/04/23 12:42:04;;;;;;;0.32;0.32;;;18.30;65.50;;;;;;4993786;28;20287;-77
2022/04/23 12:44:52;;;;;;;0.25;0.25;;;18.10;64.10;;;;;;4993240;28;20195;-76
2022/04/23 12:47:35;;;;;;;0.30;0.30;;;17.40;66.20;;;;;;4992100;28;20210;-75
2022/04/23 12:50:06;;;;;;;0.30;0.30;;;16.60;68.30;;;;;;4994298;28;20639;-76
2022/04/23 12:52:37;;;;;;;2.25;0.93;;;16.50;68.50;;;;;;4991961;28;20231;-76
2022/04/23 12:55:49;;;;;;;0.30;0.30;;;17.20;71.60;;;;;;4991987;28;20195;-76
2022/04/23 12:58:14;;;;;;;0.30;0.30;;;18.30;65.90;;;;;;4935633;29;20276;-77
2022/04/23 13:00:43;;;;;;;0.30;0.30;;;17.60;65.60;;;;;;4920697;29;20305;-76
2022/04/23 13:03:32;;;;;;;0.40;0.40;;;16.60;65.50;;;;;;4933410;29;20276;-77
2022/04/23 13:05:58;;;;;;;0.30;0.30;;;16.20;69.20;;;;;;4933123;29;20351;-77
2022/04/23 13:11:27;;;;;;;0.43;0.43;;;15.10;70.60;;;;;;4933500;29;20695;-78
2022/04/23 13:13:59;;;;;;;0.40;0.40;;;15.30;70.50;;;;;;4933325;29;20212;-77
2022/04/23 13:16:29;;;;;;;0.40;0.40;;;15.50;70.80;;;;;;4932950;29;20232;-77
2022/04/23 13:18:57;;;;;;;0.40;0.40;;;15.70;70.00;;;;;;4933024;29;20240;-76
2022/04/23 13:21:25;;;;;;;0.40;0.40;;;15.90;70.00;;;;;;4916196;29;20256;-77
2022/04/23 13:23:52;;;;;;;0.40;0.40;;;16.00;69.90;;;;;;4948256;29;20200;-76
2022/04/23 13:26:21;;;;;;;0.40;0.40;;;15.90;71.50;;;;;;4935852;29;20213;-82
2022/04/23 13:28:48;;;;;;;0.30;0.30;;;16.50;71.60;;;;;;4951995;29;20724;-76
2022/04/23 13:31:17;;;;;;;0.30;0.30;;;16.70;67.00;;;;;;4944201;28;20204;-79
2022/04/23 13:33:43;;;;;;;0.40;0.40;;;16.60;69.00;;;;;;4971951;28;20200;-76
2022/04/23 13:36:09;;;;;;;0.30;0.30;;;16.50;67.90;;;;;;4977050;28;20239;-77
2022/04/23 13:38:35;;;;;;;0.40;0.40;;;15.50;68.10;;;;;;4975829;28;20287;-77
2022/04/23 13:41:03;;;;;;;0.43;0.43;;;14.90;70.60;;;;;;4976007;28;20238;-74
2022/04/23 13:43:29;;;;;;;0.30;0.30;;;15.00;71.30;;;;;;4975755;28;20196;-74
2022/04/23 13:45:55;;;;;;;0.40;0.40;;;15.30;71.20;;;;;;4977280;28;20237;-77